sensor_id;sensor_type;location;lat;lon;timestamp;P1;durP1;ratioP1;P2;durP2;ratioP2
4911;SDS011;2471;47.056;8.350;2022-12-07T00:00:28;45.30;;;21.80;;
4911;SDS011;2471;47.056;8.350;2022-12-07T00:02:54;49.13;;;22.40;;
4911;SDS011;2471;47.056;8.350;2022-12-07T00:05:20;47.57;;;21.83;;
4911;SDS011;2471;47.056;8.350;2022-12-07T00:07:46;42.90;;;21.40;;
4911;SDS011;2471;47.056;8.350;2022-12-07T00:10:12;47.13;;;21.77;;
4911;SDS011;2471;47.056;8.350;2022-12-07T00:12:38;43.47;;;21.63;;
4911;SDS011;2471;47.056;8.350;2022-12-07T00:15:04;50.27;;;22.17;;
4911;SDS011;2471;47.056;8.350;2022-12-07T00:17:30;40.10;;;19.30;;
4911;SDS011;2471;47.056;8.350;2022-12-07T00:19:56;38.73;;;21.20;;
4911;SDS011;2471;47.056;8.350;2022-12-07T00:22:22;42.20;;;21.13;;
4911;SDS011;2471;47.056;8.350;2022-12-07T00:24:48;49.80;;;22.50;;
4911;SDS011;2471;47.056;8.350;2022-12-07T00:27:14;45.93;;;21.27;;
4911;SDS011;2471;47.056;8.350;2022-12-07T00:29:40;43.83;;;20.50;;
4911;SDS011;2471;47.056;8.350;2022-12-07T00:32:06;58.27;;;22.60;;
4911;SDS011;2471;47.056;8.350;2022-12-07T00:34:32;46.60;;;21.20;;
4911;SDS011;2471;47.056;8.350;2022-12-07T00:36:58;54.73;;;22.60;;
4911;SDS011;2471;47.056;8.350;2022-12-07T00:39:24;38.60;;;19.73;;
4911;SDS011;2471;47.056;8.350;2022-12-07T00:41:50;51.97;;;23.90;;
4911;SDS011;2471;47.056;8.350;2022-12-07T00:44:16;46.63;;;21.10;;
4911;SDS011;2471;47.056;8.350;2022-12-07T00:46:42;42.50;;;21.20;;
4911;SDS011;2471;47.056;8.350;2022-12-07T00:49:08;42.40;;;20.90;;
4911;SDS011;2471;47.056;8.350;2022-12-07T00:51:33;44.73;;;22.37;;
4911;SDS011;2471;47.056;8.350;2022-12-07T00:53:59;43.50;;;21.13;;
4911;SDS011;2471;47.056;8.350;2022-12-07T00:56:26;45.63;;;21.47;;
4911;SDS011;2471;47.056;8.350;2022-12-07T00:58:53;44.70;;;20.10;;
4911;SDS011;2471;47.056;8.350;2022-12-07T01:01:20;46.07;;;20.97;;
4911;SDS011;2471;47.056;8.350;2022-12-07T01:03:47;41.77;;;20.30;;
4911;SDS011;2471;47.056;8.350;2022-12-07T01:06:16;42.13;;;21.23;;
4911;SDS011;2471;47.056;8.350;2022-12-07T01:08:42;47.00;;;21.90;;
4911;SDS011;2471;47.056;8.350;2022-12-07T01:11:09;43.00;;;19.83;;
4911;SDS011;2471;47.056;8.350;2022-12-07T01:13:37;40.40;;;20.00;;
4911;SDS011;2471;47.056;8.350;2022-12-07T01:16:04;43.20;;;20.97;;
4911;SDS011;2471;47.056;8.350;2022-12-07T01:18:31;41.50;;;20.00;;
4911;SDS011;2471;47.056;8.350;2022-12-07T01:21:01;39.93;;;19.70;;
4911;SDS011;2471;47.056;8.350;2022-12-07T01:23:28;41.60;;;18.70;;
4911;SDS011;2471;47.056;8.350;2022-12-07T01:25:55;46.20;;;21.10;;
4911;SDS011;2471;47.056;8.350;2022-12-07T01:28:21;45.30;;;19.87;;
4911;SDS011;2471;47.056;8.350;2022-12-07T01:33:46;45.20;;;20.17;;
4911;SDS011;2471;47.056;8.350;2022-12-07T01:36:14;42.43;;;19.73;;
4911;SDS011;2471;47.056;8.350;2022-12-07T01:38:40;36.47;;;19.07;;
4911;SDS011;2471;47.056;8.350;2022-12-07T01:41:06;45.93;;;19.83;;
4911;SDS011;2471;47.056;8.350;2022-12-07T01:43:32;44.27;;;19.70;;
4911;SDS011;2471;47.056;8.350;2022-12-07T01:45:59;48.73;;;20.97;;
4911;SDS011;2471;47.056;8.350;2022-12-07T01:48:26;36.53;;;18.10;;
4911;SDS011;2471;47.056;8.350;2022-12-07T01:50:53;40.00;;;19.57;;
4911;SDS011;2471;47.056;8.350;2022-12-07T01:53:20;43.90;;;20.30;;
4911;SDS011;2471;47.056;8.350;2022-12-07T01:55:47;38.67;;;20.20;;
4911;SDS011;2471;47.056;8.350;2022-12-07T01:58:15;45.07;;;20.43;;
4911;SDS011;2471;47.056;8.350;2022-12-07T02:00:42;43.93;;;20.70;;
4911;SDS011;2471;47.056;8.350;2022-12-07T02:03:13;39.83;;;19.20;;
4911;SDS011;2471;47.056;8.350;2022-12-07T02:05:40;42.10;;;20.67;;
4911;SDS011;2471;47.056;8.350;2022-12-07T02:08:06;41.00;;;19.27;;
4911;SDS011;2471;47.056;8.350;2022-12-07T02:10:33;42.03;;;18.33;;
4911;SDS011;2471;47.056;8.350;2022-12-07T02:21:11;38.67;;;18.87;;
4911;SDS011;2471;47.056;8.350;2022-12-07T02:26:23;39.77;;;19.53;;
4911;SDS011;2471;47.056;8.350;2022-12-07T02:29:02;41.33;;;19.13;;
4911;SDS011;2471;47.056;8.350;2022-12-07T02:31:33;39.30;;;18.80;;
4911;SDS011;2471;47.056;8.350;2022-12-07T02:34:03;46.77;;;20.27;;
4911;SDS011;2471;47.056;8.350;2022-12-07T02:36:32;47.50;;;21.73;;
4911;SDS011;2471;47.056;8.350;2022-12-07T02:39:01;39.30;;;18.67;;
4911;SDS011;2471;47.056;8.350;2022-12-07T02:41:36;40.23;;;20.90;;
4911;SDS011;2471;47.056;8.350;2022-12-07T02:44:10;45.43;;;18.70;;
4911;SDS011;2471;47.056;8.350;2022-12-07T02:46:42;50.67;;;20.70;;
4911;SDS011;2471;47.056;8.350;2022-12-07T02:49:08;42.70;;;20.00;;
4911;SDS011;2471;47.056;8.350;2022-12-07T02:51:38;43.00;;;20.10;;
4911;SDS011;2471;47.056;8.350;2022-12-07T02:54:08;39.30;;;19.97;;
4911;SDS011;2471;47.056;8.350;2022-12-07T03:06:49;41.60;;;20.33;;
4911;SDS011;2471;47.056;8.350;2022-12-07T03:09:27;44.77;;;21.10;;
4911;SDS011;2471;47.056;8.350;2022-12-07T03:12:00;40.13;;;18.53;;
4911;SDS011;2471;47.056;8.350;2022-12-07T03:14:29;39.27;;;19.33;;
4911;SDS011;2471;47.056;8.350;2022-12-07T03:19:23;41.00;;;19.73;;
4911;SDS011;2471;47.056;8.350;2022-12-07T03:22:09;41.47;;;19.00;;
4911;SDS011;2471;47.056;8.350;2022-12-07T03:24:37;46.53;;;21.27;;
4911;SDS011;2471;47.056;8.350;2022-12-07T03:27:06;42.13;;;20.20;;
4911;SDS011;2471;47.056;8.350;2022-12-07T03:29:37;46.83;;;20.37;;
4911;SDS011;2471;47.056;8.350;2022-12-07T03:32:12;41.10;;;18.90;;
4911;SDS011;2471;47.056;8.350;2022-12-07T03:34:47;50.00;;;21.37;;
4911;SDS011;2471;47.056;8.350;2022-12-07T03:37:20;45.63;;;19.77;;
4911;SDS011;2471;47.056;8.350;2022-12-07T03:39:51;47.53;;;21.60;;
4911;SDS011;2471;47.056;8.350;2022-12-07T03:42:20;34.57;;;17.27;;
4911;SDS011;2471;47.056;8.350;2022-12-07T03:44:46;44.27;;;19.20;;
4911;SDS011;2471;47.056;8.350;2022-12-07T03:47:20;50.50;;;21.20;;
4911;SDS011;2471;47.056;8.350;2022-12-07T03:49:50;45.10;;;19.93;;
4911;SDS011;2471;47.056;8.350;2022-12-07T03:55:14;43.07;;;19.60;;
4911;SDS011;2471;47.056;8.350;2022-12-07T03:57:42;39.00;;;18.50;;
4911;SDS011;2471;47.056;8.350;2022-12-07T04:00:09;40.93;;;19.00;;
4911;SDS011;2471;47.056;8.350;2022-12-07T04:02:36;42.40;;;19.80;;
4911;SDS011;2471;47.056;8.350;2022-12-07T04:05:02;41.10;;;19.03;;
4911;SDS011;2471;47.056;8.350;2022-12-07T04:07:28;44.17;;;22.00;;
4911;SDS011;2471;47.056;8.350;2022-12-07T04:09:54;41.87;;;21.57;;
4911;SDS011;2471;47.056;8.350;2022-12-07T04:12:20;37.97;;;18.73;;
4911;SDS011;2471;47.056;8.350;2022-12-07T04:14:46;55.20;;;24.10;;
4911;SDS011;2471;47.056;8.350;2022-12-07T04:17:12;43.47;;;21.17;;
4911;SDS011;2471;47.056;8.350;2022-12-07T04:19:38;41.97;;;19.87;;
4911;SDS011;2471;47.056;8.350;2022-12-07T04:22:05;40.57;;;19.33;;
4911;SDS011;2471;47.056;8.350;2022-12-07T04:24:31;42.23;;;19.83;;
4911;SDS011;2471;47.056;8.350;2022-12-07T04:26:57;44.77;;;21.43;;
4911;SDS011;2471;47.056;8.350;2022-12-07T04:29:23;43.10;;;21.37;;
4911;SDS011;2471;47.056;8.350;2022-12-07T04:31:50;42.13;;;21.03;;
4911;SDS011;2471;47.056;8.350;2022-12-07T04:34:16;41.77;;;19.07;;
4911;SDS011;2471;47.056;8.350;2022-12-07T04:36:43;40.17;;;19.27;;
4911;SDS011;2471;47.056;8.350;2022-12-07T04:39:13;44.67;;;21.70;;
4911;SDS011;2471;47.056;8.350;2022-12-07T04:41:42;38.20;;;18.67;;
4911;SDS011;2471;47.056;8.350;2022-12-07T04:44:08;38.17;;;18.43;;
4911;SDS011;2471;47.056;8.350;2022-12-07T04:46:34;43.50;;;20.27;;
4911;SDS011;2471;47.056;8.350;2022-12-07T04:49:00;42.60;;;20.60;;
4911;SDS011;2471;47.056;8.350;2022-12-07T04:51:27;43.30;;;20.83;;
4911;SDS011;2471;47.056;8.350;2022-12-07T04:53:53;46.33;;;20.80;;
4911;SDS011;2471;47.056;8.350;2022-12-07T04:56:19;40.70;;;19.77;;
4911;SDS011;2471;47.056;8.350;2022-12-07T04:58:46;45.67;;;19.90;;
4911;SDS011;2471;47.056;8.350;2022-12-07T05:01:13;36.73;;;19.57;;
4911;SDS011;2471;47.056;8.350;2022-12-07T05:03:39;41.90;;;18.87;;
4911;SDS011;2471;47.056;8.350;2022-12-07T05:06:05;38.83;;;20.03;;
4911;SDS011;2471;47.056;8.350;2022-12-07T05:08:32;42.00;;;20.30;;
4911;SDS011;2471;47.056;8.350;2022-12-07T05:10:58;42.03;;;18.90;;
4911;SDS011;2471;47.056;8.350;2022-12-07T05:13:24;44.00;;;18.03;;
4911;SDS011;2471;47.056;8.350;2022-12-07T05:15:50;38.10;;;18.93;;
4911;SDS011;2471;47.056;8.350;2022-12-07T05:18:16;40.80;;;18.70;;
4911;SDS011;2471;47.056;8.350;2022-12-07T05:20:42;40.63;;;19.47;;
4911;SDS011;2471;47.056;8.350;2022-12-07T05:23:08;39.37;;;19.17;;
4911;SDS011;2471;47.056;8.350;2022-12-07T05:25:34;43.20;;;16.13;;
4911;SDS011;2471;47.056;8.350;2022-12-07T05:28:01;39.80;;;17.97;;
4911;SDS011;2471;47.056;8.350;2022-12-07T05:30:27;40.37;;;19.03;;
4911;SDS011;2471;47.056;8.350;2022-12-07T05:32:53;34.80;;;18.17;;
4911;SDS011;2471;47.056;8.350;2022-12-07T05:35:19;34.80;;;17.07;;
4911;SDS011;2471;47.056;8.350;2022-12-07T05:37:45;38.87;;;19.23;;
4911;SDS011;2471;47.056;8.350;2022-12-07T05:40:12;36.60;;;19.40;;
4911;SDS011;2471;47.056;8.350;2022-12-07T05:42:40;41.63;;;19.00;;
4911;SDS011;2471;47.056;8.350;2022-12-07T05:45:07;40.53;;;19.00;;
4911;SDS011;2471;47.056;8.350;2022-12-07T05:47:33;36.60;;;17.23;;
4911;SDS011;2471;47.056;8.350;2022-12-07T05:49:59;38.60;;;17.60;;
4911;SDS011;2471;47.056;8.350;2022-12-07T05:52:25;35.67;;;17.73;;
4911;SDS011;2471;47.056;8.350;2022-12-07T05:54:51;38.77;;;17.97;;
4911;SDS011;2471;47.056;8.350;2022-12-07T05:57:20;33.40;;;17.37;;
4911;SDS011;2471;47.056;8.350;2022-12-07T05:59:46;36.47;;;17.93;;
4911;SDS011;2471;47.056;8.350;2022-12-07T06:02:13;38.07;;;17.20;;
4911;SDS011;2471;47.056;8.350;2022-12-07T06:04:41;33.90;;;17.63;;
4911;SDS011;2471;47.056;8.350;2022-12-07T06:07:07;40.97;;;18.63;;
4911;SDS011;2471;47.056;8.350;2022-12-07T06:09:33;40.50;;;19.07;;
4911;SDS011;2471;47.056;8.350;2022-12-07T06:12:00;39.47;;;18.40;;
4911;SDS011;2471;47.056;8.350;2022-12-07T06:14:45;36.70;;;18.20;;
4911;SDS011;2471;47.056;8.350;2022-12-07T06:17:11;40.07;;;19.30;;
4911;SDS011;2471;47.056;8.350;2022-12-07T06:19:37;42.60;;;20.60;;
4911;SDS011;2471;47.056;8.350;2022-12-07T06:22:04;41.73;;;21.10;;
4911;SDS011;2471;47.056;8.350;2022-12-07T06:24:30;42.60;;;18.37;;
4911;SDS011;2471;47.056;8.350;2022-12-07T06:26:56;42.57;;;18.90;;
4911;SDS011;2471;47.056;8.350;2022-12-07T06:29:22;39.90;;;19.60;;
4911;SDS011;2471;47.056;8.350;2022-12-07T06:31:48;40.33;;;19.80;;
4911;SDS011;2471;47.056;8.350;2022-12-07T06:34:18;43.47;;;20.50;;
4911;SDS011;2471;47.056;8.350;2022-12-07T06:36:44;39.47;;;18.73;;
4911;SDS011;2471;47.056;8.350;2022-12-07T06:39:15;40.37;;;18.77;;
4911;SDS011;2471;47.056;8.350;2022-12-07T06:41:41;45.87;;;19.90;;
4911;SDS011;2471;47.056;8.350;2022-12-07T06:44:07;41.33;;;19.27;;
4911;SDS011;2471;47.056;8.350;2022-12-07T06:46:33;37.07;;;18.90;;
4911;SDS011;2471;47.056;8.350;2022-12-07T06:49:03;34.67;;;17.97;;
4911;SDS011;2471;47.056;8.350;2022-12-07T06:51:29;47.20;;;22.23;;
4911;SDS011;2471;47.056;8.350;2022-12-07T06:53:55;46.03;;;20.20;;
4911;SDS011;2471;47.056;8.350;2022-12-07T06:56:21;42.90;;;19.20;;
4911;SDS011;2471;47.056;8.350;2022-12-07T06:58:48;38.67;;;19.57;;
4911;SDS011;2471;47.056;8.350;2022-12-07T07:01:15;39.73;;;19.33;;
4911;SDS011;2471;47.056;8.350;2022-12-07T07:03:41;43.23;;;21.27;;
4911;SDS011;2471;47.056;8.350;2022-12-07T07:06:08;37.30;;;18.13;;
4911;SDS011;2471;47.056;8.350;2022-12-07T07:08:34;42.23;;;21.13;;
4911;SDS011;2471;47.056;8.350;2022-12-07T07:11:00;39.80;;;20.07;;
4911;SDS011;2471;47.056;8.350;2022-12-07T07:13:26;48.53;;;21.47;;
4911;SDS011;2471;47.056;8.350;2022-12-07T07:15:52;40.73;;;19.57;;
4911;SDS011;2471;47.056;8.350;2022-12-07T07:18:18;45.80;;;21.10;;
4911;SDS011;2471;47.056;8.350;2022-12-07T07:20:44;43.17;;;18.80;;
4911;SDS011;2471;47.056;8.350;2022-12-07T07:23:10;51.20;;;22.00;;
4911;SDS011;2471;47.056;8.350;2022-12-07T07:25:36;45.83;;;21.67;;
4911;SDS011;2471;47.056;8.350;2022-12-07T07:28:02;45.07;;;20.30;;
4911;SDS011;2471;47.056;8.350;2022-12-07T07:30:28;43.63;;;20.60;;
4911;SDS011;2471;47.056;8.350;2022-12-07T07:32:58;46.47;;;20.50;;
4911;SDS011;2471;47.056;8.350;2022-12-07T07:35:27;41.60;;;21.37;;
4911;SDS011;2471;47.056;8.350;2022-12-07T07:37:53;38.53;;;19.27;;
4911;SDS011;2471;47.056;8.350;2022-12-07T07:40:20;40.77;;;18.90;;
4911;SDS011;2471;47.056;8.350;2022-12-07T07:42:49;50.33;;;23.23;;
4911;SDS011;2471;47.056;8.350;2022-12-07T07:45:16;40.47;;;20.10;;
4911;SDS011;2471;47.056;8.350;2022-12-07T07:47:42;43.50;;;20.13;;
4911;SDS011;2471;47.056;8.350;2022-12-07T07:50:08;46.60;;;21.20;;
4911;SDS011;2471;47.056;8.350;2022-12-07T07:52:34;44.90;;;22.43;;
4911;SDS011;2471;47.056;8.350;2022-12-07T07:55:00;52.40;;;22.40;;
4911;SDS011;2471;47.056;8.350;2022-12-07T07:57:26;46.47;;;19.67;;
4911;SDS011;2471;47.056;8.350;2022-12-07T07:59:52;45.30;;;21.07;;
4911;SDS011;2471;47.056;8.350;2022-12-07T08:02:18;45.00;;;22.23;;
4911;SDS011;2471;47.056;8.350;2022-12-07T08:04:45;43.67;;;21.70;;
4911;SDS011;2471;47.056;8.350;2022-12-07T08:07:11;47.00;;;21.43;;
4911;SDS011;2471;47.056;8.350;2022-12-07T08:09:37;48.40;;;22.87;;
4911;SDS011;2471;47.056;8.350;2022-12-07T08:12:04;46.67;;;22.40;;
4911;SDS011;2471;47.056;8.350;2022-12-07T08:14:30;47.10;;;21.90;;
4911;SDS011;2471;47.056;8.350;2022-12-07T08:16:56;51.43;;;20.83;;
4911;SDS011;2471;47.056;8.350;2022-12-07T08:19:22;49.03;;;23.23;;
4911;SDS011;2471;47.056;8.350;2022-12-07T08:21:48;45.50;;;21.13;;
4911;SDS011;2471;47.056;8.350;2022-12-07T08:24:14;44.97;;;23.07;;
4911;SDS011;2471;47.056;8.350;2022-12-07T08:26:40;47.57;;;24.40;;
4911;SDS011;2471;47.056;8.350;2022-12-07T08:29:06;46.03;;;22.60;;
4911;SDS011;2471;47.056;8.350;2022-12-07T08:31:32;49.60;;;23.67;;
4911;SDS011;2471;47.056;8.350;2022-12-07T08:33:58;45.00;;;22.13;;
4911;SDS011;2471;47.056;8.350;2022-12-07T08:36:24;42.43;;;21.70;;
4911;SDS011;2471;47.056;8.350;2022-12-07T08:38:50;48.07;;;22.43;;
4911;SDS011;2471;47.056;8.350;2022-12-07T08:41:16;45.80;;;22.13;;
4911;SDS011;2471;47.056;8.350;2022-12-07T08:43:42;43.00;;;22.60;;
4911;SDS011;2471;47.056;8.350;2022-12-07T08:46:13;46.87;;;21.70;;
4911;SDS011;2471;47.056;8.350;2022-12-07T08:48:44;47.40;;;20.37;;
4911;SDS011;2471;47.056;8.350;2022-12-07T08:51:11;40.40;;;20.50;;
4911;SDS011;2471;47.056;8.350;2022-12-07T08:53:37;51.20;;;24.13;;
4911;SDS011;2471;47.056;8.350;2022-12-07T08:56:04;45.50;;;22.27;;
4911;SDS011;2471;47.056;8.350;2022-12-07T08:58:30;47.87;;;22.97;;
4911;SDS011;2471;47.056;8.350;2022-12-07T09:00:57;39.67;;;20.67;;
4911;SDS011;2471;47.056;8.350;2022-12-07T09:03:23;46.93;;;23.90;;
4911;SDS011;2471;47.056;8.350;2022-12-07T09:05:49;67.60;;;28.77;;
4911;SDS011;2471;47.056;8.350;2022-12-07T09:08:15;45.30;;;24.03;;
4911;SDS011;2471;47.056;8.350;2022-12-07T09:10:41;44.10;;;22.07;;
4911;SDS011;2471;47.056;8.350;2022-12-07T09:13:07;49.40;;;22.17;;
4911;SDS011;2471;47.056;8.350;2022-12-07T09:15:33;53.13;;;22.50;;
4911;SDS011;2471;47.056;8.350;2022-12-07T09:17:59;45.93;;;22.50;;
4911;SDS011;2471;47.056;8.350;2022-12-07T09:20:25;47.13;;;23.00;;
4911;SDS011;2471;47.056;8.350;2022-12-07T09:22:51;51.60;;;23.80;;
4911;SDS011;2471;47.056;8.350;2022-12-07T09:25:17;54.47;;;23.57;;
4911;SDS011;2471;47.056;8.350;2022-12-07T09:27:43;53.37;;;24.47;;
4911;SDS011;2471;47.056;8.350;2022-12-07T09:30:09;54.00;;;25.87;;
4911;SDS011;2471;47.056;8.350;2022-12-07T09:32:35;53.37;;;24.10;;
4911;SDS011;2471;47.056;8.350;2022-12-07T09:35:01;49.77;;;23.80;;
4911;SDS011;2471;47.056;8.350;2022-12-07T09:37:27;50.37;;;22.60;;
4911;SDS011;2471;47.056;8.350;2022-12-07T09:39:53;49.20;;;23.40;;
4911;SDS011;2471;47.056;8.350;2022-12-07T09:42:31;48.57;;;24.07;;
4911;SDS011;2471;47.056;8.350;2022-12-07T09:44:58;41.13;;;21.37;;
4911;SDS011;2471;47.056;8.350;2022-12-07T09:47:24;48.53;;;23.20;;
4911;SDS011;2471;47.056;8.350;2022-12-07T09:49:50;51.53;;;24.17;;
4911;SDS011;2471;47.056;8.350;2022-12-07T09:52:18;49.27;;;22.70;;
4911;SDS011;2471;47.056;8.350;2022-12-07T09:54:46;52.17;;;25.23;;
4911;SDS011;2471;47.056;8.350;2022-12-07T09:57:12;46.07;;;22.57;;
4911;SDS011;2471;47.056;8.350;2022-12-07T09:59:39;45.53;;;21.80;;
4911;SDS011;2471;47.056;8.350;2022-12-07T10:02:24;47.47;;;22.60;;
4911;SDS011;2471;47.056;8.350;2022-12-07T10:04:51;49.70;;;23.60;;
4911;SDS011;2471;47.056;8.350;2022-12-07T10:07:16;42.90;;;22.77;;
4911;SDS011;2471;47.056;8.350;2022-12-07T10:09:42;49.23;;;23.07;;
4911;SDS011;2471;47.056;8.350;2022-12-07T10:12:10;48.73;;;24.80;;
4911;SDS011;2471;47.056;8.350;2022-12-07T10:14:51;45.87;;;23.00;;
4911;SDS011;2471;47.056;8.350;2022-12-07T10:17:37;62.77;;;22.40;;
4911;SDS011;2471;47.056;8.350;2022-12-07T10:22:37;49.03;;;22.70;;
4911;SDS011;2471;47.056;8.350;2022-12-07T10:25:18;70.23;;;25.37;;
4911;SDS011;2471;47.056;8.350;2022-12-07T10:27:44;53.33;;;23.13;;
4911;SDS011;2471;47.056;8.350;2022-12-07T10:30:22;49.27;;;24.17;;
4911;SDS011;2471;47.056;8.350;2022-12-07T10:32:48;45.97;;;22.10;;
4911;SDS011;2471;47.056;8.350;2022-12-07T10:35:18;58.37;;;24.30;;
4911;SDS011;2471;47.056;8.350;2022-12-07T10:37:45;62.03;;;26.17;;
4911;SDS011;2471;47.056;8.350;2022-12-07T10:40:25;54.30;;;25.03;;
4911;SDS011;2471;47.056;8.350;2022-12-07T10:45:30;52.37;;;23.10;;
4911;SDS011;2471;47.056;8.350;2022-12-07T10:48:13;54.67;;;24.13;;
4911;SDS011;2471;47.056;8.350;2022-12-07T10:56:11;51.07;;;23.53;;
4911;SDS011;2471;47.056;8.350;2022-12-07T11:14:06;57.13;;;24.40;;
4911;SDS011;2471;47.056;8.350;2022-12-07T11:16:41;51.20;;;23.07;;
4911;SDS011;2471;47.056;8.350;2022-12-07T11:24:11;53.73;;;23.67;;
4911;SDS011;2471;47.056;8.350;2022-12-07T11:26:42;48.93;;;22.60;;
4911;SDS011;2471;47.056;8.350;2022-12-07T11:31:59;57.90;;;25.70;;
4911;SDS011;2471;47.056;8.350;2022-12-07T11:36:58;53.43;;;24.13;;
4911;SDS011;2471;47.056;8.350;2022-12-07T11:39:26;53.27;;;24.77;;
4911;SDS011;2471;47.056;8.350;2022-12-07T11:42:01;53.10;;;23.43;;
4911;SDS011;2471;47.056;8.350;2022-12-07T11:45:02;55.60;;;24.03;;
4911;SDS011;2471;47.056;8.350;2022-12-07T11:47:25;56.23;;;25.50;;
4911;SDS011;2471;47.056;8.350;2022-12-07T11:49:54;52.17;;;24.10;;
4911;SDS011;2471;47.056;8.350;2022-12-07T11:52:24;54.67;;;26.63;;
4911;SDS011;2471;47.056;8.350;2022-12-07T11:54:52;52.83;;;24.47;;
4911;SDS011;2471;47.056;8.350;2022-12-07T11:57:29;56.20;;;24.20;;
4911;SDS011;2471;47.056;8.350;2022-12-07T12:00:03;62.53;;;25.33;;
4911;SDS011;2471;47.056;8.350;2022-12-07T12:02:41;52.80;;;23.90;;
4911;SDS011;2471;47.056;8.350;2022-12-07T12:05:20;42.67;;;22.30;;
4911;SDS011;2471;47.056;8.350;2022-12-07T12:07:48;62.73;;;24.90;;
4911;SDS011;2471;47.056;8.350;2022-12-07T12:10:30;56.13;;;24.60;;
4911;SDS011;2471;47.056;8.350;2022-12-07T12:13:19;51.23;;;22.50;;
4911;SDS011;2471;47.056;8.350;2022-12-07T12:21:03;70.07;;;28.30;;
4911;SDS011;2471;47.056;8.350;2022-12-07T12:23:39;60.50;;;27.97;;
4911;SDS011;2471;47.056;8.350;2022-12-07T12:26:07;69.90;;;26.60;;
4911;SDS011;2471;47.056;8.350;2022-12-07T12:31:09;68.00;;;27.67;;
4911;SDS011;2471;47.056;8.350;2022-12-07T12:33:37;59.20;;;25.43;;
4911;SDS011;2471;47.056;8.350;2022-12-07T12:38:48;56.73;;;24.10;;
4911;SDS011;2471;47.056;8.350;2022-12-07T12:51:42;68.53;;;28.60;;
4911;SDS011;2471;47.056;8.350;2022-12-07T12:59:23;61.47;;;27.13;;
4911;SDS011;2471;47.056;8.350;2022-12-07T13:01:50;55.83;;;26.50;;
4911;SDS011;2471;47.056;8.350;2022-12-07T13:04:18;50.17;;;24.80;;
4911;SDS011;2471;47.056;8.350;2022-12-07T13:06:47;57.60;;;25.83;;
4911;SDS011;2471;47.056;8.350;2022-12-07T13:09:21;66.03;;;29.23;;
4911;SDS011;2471;47.056;8.350;2022-12-07T13:11:48;65.37;;;24.07;;
4911;SDS011;2471;47.056;8.350;2022-12-07T13:16:59;53.80;;;23.27;;
4911;SDS011;2471;47.056;8.350;2022-12-07T13:24:55;61.87;;;26.93;;
4911;SDS011;2471;47.056;8.350;2022-12-07T13:27:21;58.67;;;26.40;;
4911;SDS011;2471;47.056;8.350;2022-12-07T13:29:47;61.03;;;26.50;;
4911;SDS011;2471;47.056;8.350;2022-12-07T13:32:32;69.03;;;25.80;;
4911;SDS011;2471;47.056;8.350;2022-12-07T13:34:58;70.43;;;25.53;;
4911;SDS011;2471;47.056;8.350;2022-12-07T13:37:27;60.47;;;24.87;;
4911;SDS011;2471;47.056;8.350;2022-12-07T13:39:54;61.20;;;25.80;;
4911;SDS011;2471;47.056;8.350;2022-12-07T13:42:25;61.37;;;24.70;;
4911;SDS011;2471;47.056;8.350;2022-12-07T13:44:52;58.03;;;24.30;;
4911;SDS011;2471;47.056;8.350;2022-12-07T13:49:48;65.40;;;27.30;;
4911;SDS011;2471;47.056;8.350;2022-12-07T13:55:41;49.73;;;23.27;;
4911;SDS011;2471;47.056;8.350;2022-12-07T13:57:36;57.07;;;24.00;;
4911;SDS011;2471;47.056;8.350;2022-12-07T14:00:03;52.17;;;20.17;;
4911;SDS011;2471;47.056;8.350;2022-12-07T14:02:32;63.60;;;24.57;;
4911;SDS011;2471;47.056;8.350;2022-12-07T14:07:44;63.67;;;23.30;;
4911;SDS011;2471;47.056;8.350;2022-12-07T14:10:33;61.73;;;24.73;;
4911;SDS011;2471;47.056;8.350;2022-12-07T14:13:01;60.07;;;22.13;;
4911;SDS011;2471;47.056;8.350;2022-12-07T14:15:28;57.67;;;22.67;;
4911;SDS011;2471;47.056;8.350;2022-12-07T14:17:55;57.80;;;23.13;;
4911;SDS011;2471;47.056;8.350;2022-12-07T14:20:29;51.70;;;23.87;;
4911;SDS011;2471;47.056;8.350;2022-12-07T14:22:56;50.77;;;20.20;;
4911;SDS011;2471;47.056;8.350;2022-12-07T14:25:25;49.13;;;23.23;;
4911;SDS011;2471;47.056;8.350;2022-12-07T14:30:20;60.20;;;23.60;;
4911;SDS011;2471;47.056;8.350;2022-12-07T14:32:47;65.20;;;23.03;;
4911;SDS011;2471;47.056;8.350;2022-12-07T14:35:16;52.67;;;23.50;;
4911;SDS011;2471;47.056;8.350;2022-12-07T14:37:43;51.93;;;21.17;;
4911;SDS011;2471;47.056;8.350;2022-12-07T14:40:12;53.90;;;22.00;;
4911;SDS011;2471;47.056;8.350;2022-12-07T14:42:39;52.23;;;21.83;;
4911;SDS011;2471;47.056;8.350;2022-12-07T14:45:05;59.07;;;23.30;;
4911;SDS011;2471;47.056;8.350;2022-12-07T14:47:31;48.30;;;22.90;;
4911;SDS011;2471;47.056;8.350;2022-12-07T14:49:57;52.77;;;22.57;;
4911;SDS011;2471;47.056;8.350;2022-12-07T14:52:25;51.93;;;21.30;;
4911;SDS011;2471;47.056;8.350;2022-12-07T14:54:52;46.23;;;21.10;;
4911;SDS011;2471;47.056;8.350;2022-12-07T14:57:18;49.33;;;19.83;;
4911;SDS011;2471;47.056;8.350;2022-12-07T14:59:44;47.90;;;20.23;;
4911;SDS011;2471;47.056;8.350;2022-12-07T15:02:14;47.10;;;19.87;;
4911;SDS011;2471;47.056;8.350;2022-12-07T15:04:40;44.50;;;21.03;;
4911;SDS011;2471;47.056;8.350;2022-12-07T15:07:09;39.80;;;18.47;;
4911;SDS011;2471;47.056;8.350;2022-12-07T15:09:36;37.37;;;17.23;;
4911;SDS011;2471;47.056;8.350;2022-12-07T15:12:02;44.30;;;18.90;;
4911;SDS011;2471;47.056;8.350;2022-12-07T15:14:28;39.93;;;17.27;;
4911;SDS011;2471;47.056;8.350;2022-12-07T15:16:54;38.73;;;18.33;;
4911;SDS011;2471;47.056;8.350;2022-12-07T15:19:21;39.13;;;17.80;;
4911;SDS011;2471;47.056;8.350;2022-12-07T15:21:48;40.43;;;17.77;;
4911;SDS011;2471;47.056;8.350;2022-12-07T15:24:14;34.97;;;16.67;;
4911;SDS011;2471;47.056;8.350;2022-12-07T15:26:41;36.70;;;17.00;;
4911;SDS011;2471;47.056;8.350;2022-12-07T15:29:07;39.33;;;18.77;;
4911;SDS011;2471;47.056;8.350;2022-12-07T15:31:33;44.57;;;19.77;;
4911;SDS011;2471;47.056;8.350;2022-12-07T15:33:59;36.07;;;16.90;;
4911;SDS011;2471;47.056;8.350;2022-12-07T15:36:26;37.33;;;17.93;;
4911;SDS011;2471;47.056;8.350;2022-12-07T15:38:53;38.70;;;17.43;;
4911;SDS011;2471;47.056;8.350;2022-12-07T15:41:19;36.70;;;15.17;;
4911;SDS011;2471;47.056;8.350;2022-12-07T15:43:45;34.27;;;17.33;;
4911;SDS011;2471;47.056;8.350;2022-12-07T15:46:30;39.40;;;16.67;;
4911;SDS011;2471;47.056;8.350;2022-12-07T15:48:56;38.87;;;17.00;;
4911;SDS011;2471;47.056;8.350;2022-12-07T15:51:22;38.93;;;17.60;;
4911;SDS011;2471;47.056;8.350;2022-12-07T15:53:48;39.17;;;18.20;;
4911;SDS011;2471;47.056;8.350;2022-12-07T15:56:14;36.30;;;17.80;;
4911;SDS011;2471;47.056;8.350;2022-12-07T15:58:40;36.13;;;18.93;;
4911;SDS011;2471;47.056;8.350;2022-12-07T16:01:13;42.07;;;19.73;;
4911;SDS011;2471;47.056;8.350;2022-12-07T16:03:39;48.83;;;21.30;;
4911;SDS011;2471;47.056;8.350;2022-12-07T16:06:05;49.47;;;24.57;;
4911;SDS011;2471;47.056;8.350;2022-12-07T16:08:31;46.63;;;21.77;;
4911;SDS011;2471;47.056;8.350;2022-12-07T16:10:57;39.60;;;18.33;;
4911;SDS011;2471;47.056;8.350;2022-12-07T16:13:23;42.33;;;20.30;;
4911;SDS011;2471;47.056;8.350;2022-12-07T16:15:49;46.53;;;19.90;;
4911;SDS011;2471;47.056;8.350;2022-12-07T16:18:15;46.67;;;19.53;;
4911;SDS011;2471;47.056;8.350;2022-12-07T16:20:41;38.50;;;18.60;;
4911;SDS011;2471;47.056;8.350;2022-12-07T16:23:07;52.33;;;18.57;;
4911;SDS011;2471;47.056;8.350;2022-12-07T16:25:33;33.27;;;17.50;;
4911;SDS011;2471;47.056;8.350;2022-12-07T16:27:59;36.43;;;18.37;;
4911;SDS011;2471;47.056;8.350;2022-12-07T16:30:25;39.23;;;18.87;;
4911;SDS011;2471;47.056;8.350;2022-12-07T16:32:51;34.90;;;17.73;;
4911;SDS011;2471;47.056;8.350;2022-12-07T16:35:17;35.53;;;18.27;;
4911;SDS011;2471;47.056;8.350;2022-12-07T16:37:43;34.73;;;18.10;;
4911;SDS011;2471;47.056;8.350;2022-12-07T16:40:09;32.73;;;17.40;;
4911;SDS011;2471;47.056;8.350;2022-12-07T16:42:35;35.33;;;17.03;;